Time;durP1;ratioP1;P1;durP2;ratioP2;P2;SDS_P1;SDS_P2;PMS_P1;PMS_P2;Temp;Humidity;BMP_temperature;BMP_pressure;BME280_temperature;BME280_humidity;BME280_pressure;Samples;Min_cycle;Max_cycle;Signal;HPM_P1;HPM_P2
2022/09/13 00:01:15;;;;;;;5.15;3.03;;;;;;;26.37;57.61;100925.47;5057099;28;20032;-41
2022/09/13 00:03:41;;;;;;;4.20;2.85;;;;;;;26.36;57.41;100929.19;5056915;28;20119;-43
2022/09/13 00:06:13;;;;;;;5.10;3.25;;;;;;;26.35;57.89;100923.94;5055785;28;20404;-45
2022/09/13 00:08:39;;;;;;;5.57;3.25;;;;;;;26.37;57.71;100927.31;5055862;28;20066;-41
2022/09/13 00:11:05;;;;;;;4.80;3.00;;;;;;;26.36;57.56;100925.63;5055914;28;20036;-42
2022/09/13 00:13:31;;;;;;;3.88;2.88;;;;;;;26.35;57.79;100932.91;5056326;28;20069;-43
2022/09/13 00:15:57;;;;;;;3.85;2.90;;;;;;;26.35;57.66;100926.66;5056513;28;20377;-45
2022/09/13 00:18:23;;;;;;;5.07;3.10;;;;;;;26.34;57.78;100928.50;5057869;28;20478;-42
2022/09/13 00:20:48;;;;;;;6.20;3.50;;;;;;;26.34;57.80;100928.50;5057016;28;20028;-42
2022/09/13 00:23:13;;;;;;;3.55;3.00;;;;;;;26.33;57.89;100927.66;5056284;28;20033;-41
2022/09/13 00:25:39;;;;;;;4.78;3.05;;;;;;;26.31;57.86;100915.28;5055886;28;20040;-40
2022/09/13 00:28:05;;;;;;;3.60;2.88;;;;;;;26.30;57.85;100922.56;5042153;28;20032;-40
2022/09/13 00:30:30;;;;;;;4.25;3.10;;;;;;;26.31;57.90;100920.72;5056025;28;20478;-43
2022/09/13 00:32:56;;;;;;;4.72;3.30;;;;;;;26.30;57.69;100917.13;5055895;28;20085;-41
2022/09/13 00:35:22;;;;;;;4.00;2.80;;;;;;;26.30;57.93;100924.44;5056505;28;20036;-41
2022/09/13 00:37:48;;;;;;;4.32;3.20;;;;;;;26.28;57.94;100938.19;5055407;28;20054;-43
2022/09/13 00:40:13;;;;;;;4.50;3.03;;;;;;;26.27;57.95;100928.34;5056043;28;20694;-44
2022/09/13 00:42:39;;;;;;;3.83;2.80;;;;;;;26.27;57.63;100920.19;5055873;28;20384;-44
2022/09/13 00:45:11;;;;;;;4.20;3.10;;;;;;;26.26;57.88;100926.66;5035489;28;21115;-46
2022/09/13 00:47:44;;;;;;;3.78;2.92;;;;;;;26.27;57.74;100922.09;5055409;28;20127;-43
2022/09/13 00:50:16;;;;;;;4.40;3.20;;;;;;;26.25;57.99;100930.38;5055899;28;20036;-42
2022/09/13 00:52:50;;;;;;;4.88;3.00;;;;;;;26.26;57.72;100936.66;5054661;28;20165;-41
2022/09/13 00:55:19;;;;;;;4.05;3.10;;;;;;;26.25;58.25;100941.22;5056601;28;20036;-43
2022/09/13 00:57:45;;;;;;;3.75;3.00;;;;;;;26.24;57.95;100936.84;5055649;28;20481;-43
2022/09/13 01:00:15;;;;;;;4.57;3.17;;;;;;;26.23;58.13;100934.28;5055632;28;20771;-41
2022/09/13 01:02:45;;;;;;;4.20;3.00;;;;;;;26.23;58.46;100936.97;5056497;28;20066;-42
2022/09/13 01:05:14;;;;;;;3.22;2.85;;;;;;;26.23;58.40;100937.84;5056198;28;20028;-46
2022/09/13 01:07:40;;;;;;;3.67;2.85;;;;;;;26.21;58.32;100936.31;5053789;28;20031;-44
2022/09/13 01:10:07;;;;;;;4.20;3.00;;;;;;;26.18;58.41;100929.38;5055335;28;20040;-43
2022/09/13 01:12:41;;;;;;;3.42;2.78;;;;;;;26.17;57.28;100923.06;5054472;28;20484;-44
2022/09/13 01:15:07;;;;;;;3.00;2.70;;;;;;;26.16;56.94;100923.25;5055862;28;20063;-43
2022/09/13 01:17:34;;;;;;;3.75;2.97;;;;;;;26.16;56.87;100925.97;5069838;27;20142;-42
2022/09/13 01:20:02;;;;;;;4.00;3.00;;;;;;;26.15;58.05;100922.41;5054677;28;20044;-43
2022/09/13 01:23:05;;;;;;;3.10;2.80;;;;;;;26.16;57.99;100920.53;5055366;28;20040;-45
2022/09/13 01:25:54;;;;;;;4.07;2.92;;;;;;;26.13;57.27;100923.59;5055209;28;20043;-42
2022/09/13 01:28:29;;;;;;;3.60;3.00;;;;;;;26.14;57.38;100918.00;5054574;28;20127;-43
2022/09/13 01:31:15;;;;;;;3.25;2.90;;;;;;;26.12;57.20;100916.47;5055392;28;20036;-46
2022/09/13 01:34:22;;;;;;;3.20;2.80;;;;;;;26.11;57.03;100907.50;5052900;28;20058;-43
2022/09/13 01:36:56;;;;;;;3.35;2.70;;;;;;;26.09;57.01;100905.94;5053220;28;20082;-45
2022/09/13 01:39:57;;;;;;;3.33;2.80;;;;;;;26.08;57.17;100907.81;5054269;28;20029;-44
2022/09/13 01:42:41;;;;;;;3.95;3.15;;;;;;;26.09;56.92;100914.09;5055718;28;20067;-43
2022/09/13 01:45:23;;;;;;;3.47;2.78;;;;;;;26.07;57.07;100910.72;5054877;28;20043;-41
2022/09/13 01:47:55;;;;;;;3.78;2.70;;;;;;;26.05;57.00;100899.16;5054314;28;20146;-44
2022/09/13 01:50:42;;;;;;;4.88;2.80;;;;;;;26.05;57.12;100900.03;5055298;28;22069;-40
2022/09/13 01:53:24;;;;;;;3.78;2.80;;;;;;;26.03;57.15;100902.03;5054150;28;20423;-42
2022/09/13 01:55:58;;;;;;;4.22;2.80;;;;;;;26.04;57.64;100898.28;5055375;28;20505;-42
2022/09/13 01:58:38;;;;;;;3.67;2.90;;;;;;;26.04;57.09;100892.00;5055652;28;20024;-44
2022/09/13 02:01:15;;;;;;;4.30;3.10;;;;;;;26.03;57.60;100895.75;5054192;28;20072;-44
2022/09/13 02:04:07;;;;;;;3.50;2.70;;;;;;;26.01;57.22;100894.06;5054488;28;20051;-45
2022/09/13 02:06:37;;;;;;;3.67;2.60;;;;;;;26.00;57.14;100895.06;5032862;28;20044;-40
2022/09/13 02:09:12;;;;;;;3.28;2.78;;;;;;;26.00;57.56;100892.34;5042756;28;20036;-40
2022/09/13 02:11:41;;;;;;;3.63;2.90;;;;;;;26.00;57.13;100900.50;5054809;28;20032;-42
2022/09/13 02:14:12;;;;;;;4.10;2.70;;;;;;;25.97;57.22;100898.13;5055756;28;20025;-44
2022/09/13 02:17:03;;;;;;;3.58;2.95;;;;;;;25.96;57.64;100891.00;5055036;28;20032;-43
2022/09/13 02:19:40;;;;;;;3.55;2.92;;;;;;;25.98;57.26;100899.81;5055654;28;20113;-44
2022/09/13 02:22:09;;;;;;;3.70;2.80;;;;;;;25.97;57.33;100891.84;5052229;28;20771;-43
2022/09/13 02:24:38;;;;;;;3.95;2.90;;;;;;;25.98;56.96;100899.81;5059906;28;20024;-44
2022/09/13 02:27:18;;;;;;;3.53;2.60;;;;;;;25.98;57.18;100897.09;5057894;28;20032;-43
2022/09/13 02:29:46;;;;;;;4.22;2.95;;;;;;;25.97;57.33;100895.41;5058636;28;20021;-43
2022/09/13 02:32:23;;;;;;;3.42;2.83;;;;;;;25.97;57.22;100894.56;5058315;28;20052;-41
2022/09/13 02:35:09;;;;;;;3.65;2.90;;;;;;;25.96;57.38;100901.84;5057797;28;20056;-41
2022/09/13 02:37:38;;;;;;;3.10;2.70;;;;;;;25.95;57.40;100904.75;5042054;28;20040;-43
2022/09/13 02:40:09;;;;;;;3.58;2.92;;;;;;;25.93;57.60;100896.75;5058790;28;20051;-43
2022/09/13 02:42:40;;;;;;;;;;;;;;;25.95;57.27;100896.59;5059020;28;20025;-41
2022/09/13 02:45:07;;;;;;;3.80;2.83;;;;;;;25.94;57.48;100887.59;5058468;28;20060;-45
2022/09/13 02:47:59;;;;;;;3.80;2.83;;;;;;;25.93;57.67;100898.63;5039504;28;20653;-47
2022/09/13 02:50:58;;;;;;;5.03;2.97;;;;;;;25.92;57.73;100894.22;5071750;27;20029;-43
2022/09/13 02:53:42;;;;;;;3.78;2.92;;;;;;;25.91;57.43;100904.22;5057487;28;20032;-42
2022/09/13 02:56:38;;;;;;;3.33;2.88;;;;;;;25.90;57.75;100899.81;5057913;28;20024;-44
2022/09/13 02:59:22;;;;;;;3.40;2.80;;;;;;;25.91;57.72;100906.06;5057232;28;20155;-42
2022/09/13 03:02:00;;;;;;;4.05;2.92;;;;;;;25.89;57.65;100906.25;5058436;28;20732;-43
2022/09/13 03:04:27;;;;;;;4.75;3.08;;;;;;;25.88;57.85;100906.41;5057626;28;20168;-41
2022/09/13 03:06:52;;;;;;;3.67;2.95;;;;;;;25.87;57.60;100904.72;5058887;28;20040;-43
2022/09/13 03:09:19;;;;;;;4.43;2.90;;;;;;;25.86;57.78;100903.88;5057342;28;20395;-41
2022/09/13 03:11:56;;;;;;;4.32;3.10;;;;;;;25.88;57.78;100903.72;5057891;28;20939;-44
2022/09/13 03:14:35;;;;;;;4.38;3.05;;;;;;;25.88;57.99;100909.13;5058397;28;20131;-44
2022/09/13 03:17:25;;;;;;;3.72;2.90;;;;;;;25.87;57.44;100892.03;5058575;28;20760;-44
2022/09/13 03:19:50;;;;;;;3.95;2.88;;;;;;;25.87;58.08;100894.72;5059124;28;20035;-42
2022/09/13 03:22:46;;;;;;;3.37;2.87;;;;;;;25.86;57.87;100895.75;5057717;28;20071;-46
2022/09/13 03:25:35;;;;;;;4.00;2.92;;;;;;;25.85;57.97;100897.59;5057312;28;20837;-43
2022/09/13 03:28:35;;;;;;;4.53;2.83;;;;;;;25.81;57.89;100901.66;5057881;28;20047;-42
2022/09/13 03:31:12;;;;;;;3.72;2.95;;;;;;;25.65;58.54;100905.22;5057829;28;20135;-41
2022/09/13 03:33:37;;;;;;;4.50;3.13;;;;;;;25.59;59.04;100913.13;5056848;28;20040;-44
2022/09/13 03:36:19;;;;;;;3.20;2.70;;;;;;;25.54;58.82;100910.06;5058402;28;20098;-41
2022/09/13 03:39:06;;;;;;;3.75;2.88;;;;;;;25.51;59.04;100911.25;5057975;28;20294;-46
2022/09/13 03:41:38;;;;;;;4.20;2.90;;;;;;;25.49;59.06;100914.13;5057563;28;20536;-41
2022/09/13 03:44:08;;;;;;;4.72;3.20;;;;;;;25.48;59.12;100922.44;5057749;28;20016;-41
2022/09/13 03:46:39;;;;;;;2.97;2.60;;;;;;;25.49;59.19;100907.88;5057646;28;20032;-45
2022/09/13 03:49:11;;;;;;;3.53;2.63;;;;;;;25.49;59.38;100914.13;5056623;28;20300;-42
2022/09/13 03:51:38;;;;;;;3.97;3.00;;;;;;;25.51;59.65;100913.97;5056821;28;20675;-41
2022/09/13 03:54:07;;;;;;;3.47;2.90;;;;;;;25.50;59.30;100920.44;5037429;28;20028;-40
2022/09/13 03:56:33;;;;;;;4.43;2.90;;;;;;;25.51;59.15;100909.41;5057596;28;20543;-40
2022/09/13 03:58:58;;;;;;;5.45;3.00;;;;;;;25.52;58.83;100912.97;5057291;28;20027;-40
2022/09/13 04:01:24;;;;;;;4.35;2.95;;;;;;;25.52;59.02;100905.69;5037665;28;20158;-42
2022/09/13 04:03:51;;;;;;;4.03;3.15;;;;;;;25.54;59.21;100919.06;5056504;28;20032;-42
2022/09/13 04:06:16;;;;;;;3.85;3.10;;;;;;;25.55;59.19;100915.34;5071127;27;20067;-43
2022/09/13 04:08:43;;;;;;;5.90;2.97;;;;;;;25.54;59.19;100913.66;5057233;28;20032;-40
2022/09/13 04:11:08;;;;;;;3.85;3.22;;;;;;;25.54;59.26;100908.22;5057105;28;20443;-43
2022/09/13 04:13:37;;;;;;;4.80;3.20;;;;;;;25.54;59.53;100904.66;5056947;28;20024;-41
2022/09/13 04:16:04;;;;;;;4.00;3.00;;;;;;;25.52;58.93;100908.41;5056034;28;20720;-43
2022/09/13 04:18:30;;;;;;;3.25;2.70;;;;;;;25.55;59.24;100911.78;5055611;28;20142;-44
2022/09/13 04:21:00;;;;;;;3.13;2.80;;;;;;;25.56;59.68;100913.47;5057491;28;20039;-41
2022/09/13 04:23:27;;;;;;;3.75;2.80;;;;;;;25.56;59.28;100905.34;5057113;28;20415;-43
2022/09/13 04:25:53;;;;;;;3.33;3.00;;;;;;;25.55;59.51;100915.34;5056232;28;20056;-40
2022/09/13 04:28:20;;;;;;;4.70;3.15;;;;;;;25.56;59.34;100917.03;5057013;28;20719;-40
2022/09/13 04:30:47;;;;;;;4.53;3.05;;;;;;;25.56;59.52;100927.03;5057218;28;20041;-47
2022/09/13 04:33:13;;;;;;;4.13;3.10;;;;;;;25.54;59.64;100935.34;5055210;28;20040;-41
2022/09/13 04:35:38;;;;;;;3.92;2.88;;;;;;;25.54;59.47;100935.34;5057705;28;20507;-44
2022/09/13 04:38:04;;;;;;;3.75;2.80;;;;;;;25.53;59.47;100933.63;5056144;28;20044;-42
2022/09/13 04:40:30;;;;;;;4.38;2.90;;;;;;;25.54;59.11;100939.91;5057408;28;20032;-43
2022/09/13 04:42:55;;;;;;;3.00;2.70;;;;;;;25.54;59.37;100927.22;5055825;28;20044;-44
2022/09/13 04:45:21;;;;;;;3.72;3.03;;;;;;;25.55;59.48;100936.19;5054552;28;20127;-43
2022/09/13 04:47:54;;;;;;;2.75;2.53;;;;;;;25.54;59.73;100940.75;5057324;28;20119;-40
2022/09/13 04:50:20;;;;;;;3.80;2.88;;;;;;;25.54;59.23;100946.19;5055799;28;20020;-43
2022/09/13 04:52:46;;;;;;;3.20;2.90;;;;;;;25.52;59.33;100937.34;5056233;28;20040;-40
2022/09/13 04:55:11;;;;;;;3.60;2.83;;;;;;;25.52;59.32;100945.50;5055603;28;20081;-43
2022/09/13 04:57:37;;;;;;;3.38;2.78;;;;;;;25.52;59.39;100943.66;5056340;28;20139;-43
2022/09/13 05:00:03;;;;;;;3.13;2.58;;;;;;;25.52;59.69;100943.66;5068713;27;20044;-41
2022/09/13 05:02:29;;;;;;;3.85;2.70;;;;;;;25.52;59.72;100940.06;5051286;28;20123;-44
2022/09/13 05:04:55;;;;;;;3.95;2.90;;;;;;;25.50;59.57;100939.41;5055651;28;20472;-41
2022/09/13 05:07:20;;;;;;;3.55;2.80;;;;;;;25.51;59.17;100932.94;5037247;28;20143;-44
2022/09/13 05:09:45;;;;;;;4.63;2.97;;;;;;;25.51;59.56;100939.22;5055149;28;20067;-43
2022/09/13 05:12:11;;;;;;;4.88;3.00;;;;;;;25.51;59.42;100939.22;5055673;28;20119;-41
2022/09/13 05:14:36;;;;;;;4.22;2.95;;;;;;;25.51;59.64;100938.38;5037037;28;20422;-43
2022/09/13 05:17:02;;;;;;;4.53;3.05;;;;;;;25.52;59.48;100948.19;5056147;28;20400;-43
2022/09/13 05:19:27;;;;;;;4.88;2.88;;;;;;;25.51;59.46;100946.50;5054923;28;20081;-45
2022/09/13 05:21:52;;;;;;;3.78;2.78;;;;;;;25.50;59.12;100950.25;5036146;28;20284;-42
2022/09/13 05:24:18;;;;;;;4.80;3.05;;;;;;;25.51;59.36;100943.78;5036885;28;20500;-43
2022/09/13 05:26:43;;;;;;;4.07;2.90;;;;;;;25.48;59.25;100947.69;5055461;28;20115;-42
2022/09/13 05:29:09;;;;;;;4.47;2.80;;;;;;;25.47;59.52;100956.81;5056319;28;20412;-45
2022/09/13 05:31:37;;;;;;;5.45;2.78;;;;;;;25.49;59.65;100960.22;5055501;28;20052;-43
2022/09/13 05:34:16;;;;;;;3.70;2.80;;;;;;;25.48;59.12;100949.56;5054675;28;20043;-43
2022/09/13 05:36:42;;;;;;;4.22;2.90;;;;;;;25.48;59.37;100955.81;5056884;28;20404;-44
2022/09/13 05:39:13;;;;;;;2.92;2.60;;;;;;;25.48;59.78;100957.69;5054819;28;20039;-44
2022/09/13 05:41:38;;;;;;;3.40;2.80;;;;;;;25.49;59.77;100962.94;5055642;28;20333;-44
2022/09/13 05:44:04;;;;;;;3.95;2.75;;;;;;;25.50;59.36;100966.50;5055205;28;20489;-48
2022/09/13 05:46:29;;;;;;;4.20;2.90;;;;;;;25.49;59.07;100971.06;5055536;28;20455;-43
2022/09/13 05:48:58;;;;;;;4.28;3.00;;;;;;;25.48;59.47;100957.69;5034219;28;20035;-43
2022/09/13 05:51:24;;;;;;;3.55;2.80;;;;;;;25.48;59.26;100961.22;5055492;28;20111;-45
2022/09/13 05:53:51;;;;;;;3.90;2.88;;;;;;;25.47;59.87;100964.94;5049159;28;20036;-45
2022/09/13 05:56:20;;;;;;;4.18;2.90;;;;;;;25.46;59.22;100965.13;5056355;28;20032;-42
2022/09/13 05:58:47;;;;;;;3.72;2.92;;;;;;;25.46;59.41;100965.13;5055070;28;20396;-42
2022/09/13 06:01:14;;;;;;;3.38;2.92;;;;;;;25.46;59.69;100960.56;5055450;28;20183;-43
2022/09/13 06:03:40;;;;;;;4.18;2.97;;;;;;;25.47;59.40;100964.13;5054496;28;20033;-41
2022/09/13 06:06:06;;;;;;;3.10;2.72;;;;;;;25.48;59.62;100966.66;5055254;28;20032;-41
2022/09/13 06:08:33;;;;;;;4.43;2.80;;;;;;;25.49;59.75;100978.38;5035256;28;20179;-40
2022/09/13 06:11:04;;;;;;;3.42;2.78;;;;;;;25.47;59.72;100972.25;5070218;28;20498;-42
2022/09/13 06:13:30;;;;;;;3.78;2.83;;;;;;;25.46;59.87;100975.97;5069762;28;20462;-43
2022/09/13 06:15:57;;;;;;;3.30;2.70;;;;;;;25.46;59.53;100982.25;5055916;28;20686;-42
2022/09/13 06:18:23;;;;;;;3.75;2.85;;;;;;;25.48;59.78;100982.91;5054279;28;20128;-47
2022/09/13 06:20:49;;;;;;;3.22;2.63;;;;;;;25.48;59.32;100982.09;5054785;28;20032;-46
2022/09/13 06:23:15;;;;;;;4.20;2.88;;;;;;;25.48;59.66;100979.38;5056104;28;20028;-41
2022/09/13 06:25:41;;;;;;;4.32;2.80;;;;;;;25.48;59.94;100977.50;5053818;28;20039;-43
2022/09/13 06:28:08;;;;;;;3.67;2.78;;;;;;;25.50;59.75;100980.06;5055261;28;20168;-43
2022/09/13 06:30:33;;;;;;;3.50;2.70;;;;;;;25.51;59.47;100981.75;5054265;28;20791;-45
2022/09/13 06:32:59;;;;;;;3.00;2.70;;;;;;;25.50;59.74;100980.91;5055016;28;20052;-45
2022/09/13 06:35:24;;;;;;;3.58;2.65;;;;;;;25.50;59.21;100983.63;5055529;28;20127;-43
2022/09/13 06:37:50;;;;;;;3.78;2.80;;;;;;;25.52;59.92;100978.03;5069617;28;20036;-40
2022/09/13 06:40:16;;;;;;;3.65;2.78;;;;;;;25.52;59.31;100983.44;5055429;28;20044;-43
2022/09/13 06:42:41;;;;;;;4.53;2.70;;;;;;;25.51;60.01;100974.47;5056557;28;20067;-45
2022/09/13 06:45:07;;;;;;;3.47;2.80;;;;;;;25.54;59.63;100978.72;5054149;28;20131;-42
2022/09/13 06:47:33;;;;;;;3.60;2.40;;;;;;;25.55;59.82;100979.56;5055789;28;20034;-42
2022/09/13 06:49:59;;;;;;;3.33;2.80;;;;;;;25.55;59.90;100980.44;5056283;28;20036;-41
2022/09/13 06:52:25;;;;;;;3.45;2.70;;;;;;;25.55;59.59;100968.72;5054442;28;20579;-41
2022/09/13 06:54:50;;;;;;;3.28;2.60;;;;;;;25.54;59.67;100969.72;5056809;28;20031;-41
2022/09/13 06:57:16;;;;;;;3.65;3.00;;;;;;;25.52;60.03;100973.47;5053854;28;20042;-42
2022/09/13 06:59:41;;;;;;;3.42;2.70;;;;;;;25.51;60.29;100974.47;5054325;28;20036;-41
2022/09/13 07:02:08;;;;;;;3.15;2.55;;;;;;;25.51;59.88;100974.47;5054143;28;20047;-40
2022/09/13 07:04:34;;;;;;;3.97;2.72;;;;;;;25.54;59.96;100972.44;5053765;28;20066;-43
2022/09/13 07:06:59;;;;;;;3.67;2.67;;;;;;;25.54;59.82;100975.16;5053767;28;20474;-44
2022/09/13 07:09:25;;;;;;;3.10;2.60;;;;;;;25.54;59.96;100972.44;5056449;28;20157;-43
2022/09/13 07:11:53;;;;;;;3.00;2.67;;;;;;;25.55;59.70;100977.72;5057585;28;20028;-44
2022/09/13 07:14:24;;;;;;;3.38;2.65;;;;;;;25.56;59.96;100973.97;5057408;28;20036;-44
2022/09/13 07:16:50;;;;;;;4.18;2.35;;;;;;;25.59;59.93;100975.50;5057970;28;20135;-42
2022/09/13 07:19:22;;;;;;;3.53;2.55;;;;;;;25.57;59.65;100980.25;5057700;28;20043;-44
2022/09/13 07:21:50;;;;;;;3.35;2.45;;;;;;;25.57;59.80;100983.81;5058766;28;20035;-43
2022/09/13 07:24:17;;;;;;;3.80;2.50;;;;;;;25.59;59.11;100989.94;5058633;28;20040;-44
2022/09/13 07:26:43;;;;;;;3.35;2.30;;;;;;;25.61;59.25;100987.88;5058423;28;20070;-43
2022/09/13 07:29:13;;;;;;;2.80;2.33;;;;;;;25.61;59.58;100990.59;5071972;27;20555;-40
2022/09/13 07:31:41;;;;;;;2.53;2.15;;;;;;;25.61;59.65;100987.03;5057608;28;20485;-41
2022/09/13 07:34:10;;;;;;;2.90;2.17;;;;;;;25.59;59.69;100991.78;5059107;28;20036;-40
2022/09/13 07:36:37;;;;;;;2.63;2.30;;;;;;;25.59;59.70;100992.63;5059706;28;20557;-43
2022/09/13 07:39:04;;;;;;;2.40;2.13;;;;;;;25.62;59.33;100989.59;5057772;28;20035;-42
2022/09/13 07:41:30;;;;;;;3.20;2.35;;;;;;;25.62;60.10;100995.00;5058260;28;20037;-40
2022/09/13 07:43:56;;;;;;;3.05;2.10;;;;;;;25.63;59.56;100994.00;5057524;28;20534;-42
2022/09/13 07:46:27;;;;;;;2.92;2.10;;;;;;;25.63;59.38;100996.72;5057593;28;21831;-43
2022/09/13 07:48:54;;;;;;;2.45;2.10;;;;;;;25.65;59.93;100992.00;5058125;28;20035;-40
2022/09/13 07:51:28;;;;;;;2.70;2.13;;;;;;;25.68;59.71;100993.53;5039331;28;20143;-41
2022/09/13 07:53:57;;;;;;;2.45;1.92;;;;;;;25.70;59.94;100996.06;5059169;28;20039;-40
2022/09/13 07:56:26;;;;;;;3.20;2.10;;;;;;;25.71;60.00;101001.31;5058177;28;20029;-42
2022/09/13 07:58:53;;;;;;;2.25;2.00;;;;;;;25.71;60.21;100998.59;5057324;28;20036;-42
2022/09/13 08:01:19;;;;;;;2.90;2.10;;;;;;;25.71;59.52;100998.59;5058410;28;20062;-42
2022/09/13 08:03:53;;;;;;;2.78;2.13;;;;;;;25.72;59.69;101004.88;5056939;28;20059;-42
2022/09/13 08:06:19;;;;;;;2.58;2.15;;;;;;;25.74;59.51;101003.69;5056600;28;20020;-41
2022/09/13 08:08:44;;;;;;;2.90;1.95;;;;;;;25.76;60.28;100998.13;5056928;28;20042;-43
2022/09/13 08:11:20;;;;;;;2.70;2.13;;;;;;;25.78;60.33;101004.22;5056468;28;20028;-42
2022/09/13 08:13:47;;;;;;;3.63;2.00;;;;;;;25.76;60.08;101003.53;5069494;27;20532;-40
2022/09/13 08:16:13;;;;;;;4.18;1.92;;;;;;;25.76;60.61;101015.22;5056368;28;20046;-40
2022/09/13 08:18:49;;;;;;;2.40;1.92;;;;;;;25.79;59.96;101014.91;5056978;28;20042;-43
2022/09/13 08:21:15;;;;;;;2.50;1.80;;;;;;;25.80;60.14;101010.34;5056331;28;20031;-41
2022/09/13 08:23:41;;;;;;;2.42;1.65;;;;;;;25.80;60.11;101010.34;5057157;28;20542;-42
2022/09/13 08:26:07;;;;;;;2.00;1.80;;;;;;;25.80;60.25;101019.31;5056390;28;20107;-45
2022/09/13 08:28:34;;;;;;;1.85;1.67;;;;;;;25.82;60.95;101020.00;5056274;28;20028;-40
2022/09/13 08:31:16;;;;;;;4.25;1.77;;;;;;;25.83;60.60;101012.69;5055588;28;20370;-43
2022/09/13 08:33:44;;;;;;;2.00;1.80;;;;;;;25.83;60.51;101015.41;5056928;28;20074;-43
2022/09/13 08:36:09;;;;;;;3.53;1.80;;;;;;;25.83;60.45;101018.13;5056592;28;20064;-40
2022/09/13 08:38:35;;;;;;;2.78;1.77;;;;;;;25.84;60.54;101017.13;5057010;28;20660;-41
2022/09/13 08:41:16;;;;;;;4.38;1.60;;;;;;;25.84;60.38;101022.53;5051348;28;20210;-40
2022/09/13 08:43:54;;;;;;;2.45;2.00;;;;;;;25.85;60.65;101021.53;5056681;28;20092;-41
2022/09/13 08:46:19;;;;;;;138.18;7.68;;;;;;;25.85;61.01;101018.81;5050449;28;20065;-41
2022/09/13 08:48:48;;;;;;;3.23;1.80;;;;;;;25.90;60.67;101024.59;5044958;28;20032;-45
2022/09/13 08:51:39;;;;;;;2.88;1.58;;;;;;;25.95;60.79;101034.97;5049823;28;20381;-44
2022/09/13 08:54:07;;;;;;;3.25;1.67;;;;;;;25.99;59.96;101039.88;5051652;28;20086;-44
2022/09/13 08:56:56;;;;;;;6.68;1.90;;;;;;;26.00;60.59;101036.16;5030042;28;20020;-43
2022/09/13 08:59:59;;;;;;;4.22;1.60;;;;;;;26.04;60.46;101046.66;5049198;28;20127;-41
2022/09/13 09:02:33;;;;;;;8.68;1.60;;;;;;;26.06;60.16;101033.81;5049897;28;20040;-41
2022/09/13 09:05:15;;;;;;;5.07;1.60;;;;;;;26.08;60.41;101037.25;5032896;28;20392;-42
2022/09/13 09:07:46;;;;;;;4.75;1.70;;;;;;;26.10;60.62;101040.63;5049867;28;20029;-45
2022/09/13 09:10:36;;;;;;;4.82;1.83;;;;;;;26.11;60.51;101037.75;5050309;28;20024;-42
2022/09/13 09:13:07;;;;;;;1.55;1.42;;;;;;;26.12;60.58;101034.00;5050085;28;20411;-41
2022/09/13 09:15:59;;;;;;;2.35;1.70;;;;;;;26.14;60.38;101037.41;5064471;27;20063;-42
2022/09/13 09:18:47;;;;;;;1.88;1.42;;;;;;;26.16;61.03;101035.41;5049568;28;20032;-44
2022/09/13 09:21:17;;;;;;;2.28;1.60;;;;;;;26.19;60.58;101026.06;5049021;28;20173;-43
2022/09/13 09:23:50;;;;;;;3.50;1.60;;;;;;;26.19;61.07;101028.78;5045218;28;20052;-42
2022/09/13 09:26:28;;;;;;;2.28;1.42;;;;;;;26.20;60.38;101019.59;5050074;28;20040;-43
2022/09/13 09:28:58;;;;;;;4.15;1.58;;;;;;;26.22;61.31;101025.72;5048532;28;20115;-42
2022/09/13 09:31:39;;;;;;;3.08;1.60;;;;;;;26.23;60.29;101029.28;5049101;28;20047;-41
2022/09/13 09:34:11;;;;;;;2.83;1.55;;;;;;;26.24;60.67;101030.97;5049632;28;20040;-45
2022/09/13 09:37:06;;;;;;;4.75;1.65;;;;;;;26.26;60.50;101034.38;5047893;28;20025;-42
2022/09/13 09:39:32;;;;;;;3.55;1.40;;;;;;;26.28;60.28;101035.91;5050211;28;20503;-41
2022/09/13 09:41:58;;;;;;;5.53;1.40;;;;;;;26.29;60.72;101025.88;5049674;28;20077;-42
2022/09/13 09:44:31;;;;;;;4.43;1.30;;;;;;;26.30;60.82;101027.59;5050613;28;20087;-43
2022/09/13 09:47:02;;;;;;;2.08;1.35;;;;;;;26.31;60.51;101026.59;5049680;28;20532;-43
2022/09/13 09:52:43;;;;;;;4.03;1.60;;;;;;;26.35;60.42;101025.22;5050144;28;20433;-41
2022/09/13 09:55:42;;;;;;;3.38;1.30;;;;;;;26.36;60.68;101026.94;5049492;28;20055;-41
2022/09/13 09:58:10;;;;;;;4.47;1.42;;;;;;;26.38;60.92;101026.75;5041365;28;20070;-42
2022/09/13 10:00:49;;;;;;;5.85;1.70;;;;;;;26.38;60.43;101032.19;5048911;28;20028;-44
2022/09/13 10:03:23;;;;;;;3.92;1.60;;;;;;;26.39;60.44;101031.19;5048123;28;20038;-42
2022/09/13 10:05:48;;;;;;;3.60;1.40;;;;;;;26.39;60.49;101025.75;5049463;28;20024;-42
2022/09/13 10:08:28;;;;;;;6.45;1.75;;;;;;;26.41;60.80;101027.28;5048578;28;20171;-42
2022/09/13 10:10:56;;;;;;;5.28;1.48;;;;;;;26.42;60.15;101023.53;5048924;28;20783;-41
2022/09/13 10:13:23;;;;;;;5.78;1.70;;;;;;;26.42;60.48;101009.97;5047274;28;20035;-44
2022/09/13 10:15:57;;;;;;;6.63;1.95;;;;;;;26.43;60.56;101011.66;5030233;28;20362;-43
2022/09/13 10:18:24;;;;;;;3.58;1.40;;;;;;;26.46;60.26;101008.59;5048011;28;20673;-42
2022/09/13 10:21:03;;;;;;;5.13;1.58;;;;;;;26.49;60.40;101013.69;5050253;28;20111;-42
2022/09/13 10:23:30;;;;;;;4.47;1.58;;;;;;;26.51;60.31;101010.81;5050107;28;20056;-41
2022/09/13 10:25:56;;;;;;;4.75;1.77;;;;;;;26.54;60.54;101004.22;5049646;28;20396;-44
2022/09/13 10:28:23;;;;;;;6.55;1.80;;;;;;;26.55;60.33;101011.31;5050471;28;20569;-44
2022/09/13 10:31:19;;;;;;;4.85;1.60;;;;;;;26.59;60.28;101012.69;5047545;28;20039;-43
2022/09/13 10:34:04;;;;;;;7.20;1.75;;;;;;;26.61;60.21;101002.47;5039835;28;20041;-43
2022/09/13 10:36:33;;;;;;;6.25;1.63;;;;;;;26.62;60.01;100996.88;5051184;28;20481;-42
2022/09/13 10:39:01;;;;;;;6.50;1.70;;;;;;;26.63;60.07;100993.16;5046909;28;20047;-42
2022/09/13 10:41:41;;;;;;;5.22;1.58;;;;;;;26.65;59.89;100991.13;5050037;28;20654;-42
2022/09/13 10:44:26;;;;;;;5.65;1.77;;;;;;;26.67;60.09;100993.66;5052933;28;20511;-46
2022/09/13 10:46:52;;;;;;;4.20;1.77;;;;;;;26.68;59.97;100998.06;5052584;28;20035;-42
2022/09/13 10:49:49;;;;;;;14.15;2.50;;;;;;;26.70;60.76;100998.72;5052649;28;20047;-42
2022/09/13 10:52:30;;;;;;;16.52;3.85;;;;;;;26.73;60.25;101011.19;5047663;28;21015;-41
2022/09/13 10:55:22;;;;;;;13.05;3.25;;;;;;;26.73;59.65;101008.47;5051034;28;20040;-39
2022/09/13 10:58:12;;;;;;;14.45;4.07;;;;;;;26.75;60.30;101006.41;5051982;28;20341;-39
2022/09/13 11:00:40;;;;;;;19.85;4.50;;;;;;;26.76;60.23;101006.25;5052840;28;20155;-44
2022/09/13 11:03:33;;;;;;;18.13;4.35;;;;;;;26.77;60.20;101005.22;5051451;28;20028;-41
2022/09/13 11:06:25;;;;;;;17.20;4.25;;;;;;;26.80;60.45;101001.31;5051729;28;20233;-42
2022/09/13 11:08:56;;;;;;;12.15;3.90;;;;;;;26.83;60.17;101003.72;5051442;28;20449;-42
2022/09/13 11:11:35;;;;;;;20.92;5.20;;;;;;;26.87;60.24;101001.47;5051531;28;20028;-46
2022/09/13 11:14:21;;;;;;;16.65;4.80;;;;;;;26.89;59.99;101003.00;5041202;28;20055;-42
2022/09/13 11:17:27;;;;;;;14.40;4.63;;;;;;;26.91;60.24;100998.25;5052095;28;20059;-41
2022/09/13 11:20:01;;;;;;;12.25;4.00;;;;;;;26.92;60.44;100997.22;5053599;28;20478;-44
2022/09/13 11:22:50;;;;;;;14.98;4.32;;;;;;;26.93;60.17;100993.50;5050923;28;20071;-43
2022/09/13 11:25:33;;;;;;;12.68;4.10;;;;;;;26.96;59.77;100989.59;5050625;28;20035;-44
2022/09/13 11:28:25;;;;;;;14.65;4.35;;;;;;;26.94;60.06;100986.19;5051656;28;20032;-45
2022/09/13 11:31:28;;;;;;;11.00;4.05;;;;;;;26.97;60.17;100985.81;5053797;28;20077;-44
2022/09/13 11:33:56;;;;;;;11.48;3.78;;;;;;;26.97;60.09;100996.69;5053925;28;20504;-43
2022/09/13 11:36:44;;;;;;;13.68;4.30;;;;;;;26.97;60.00;101000.28;5053057;28;20720;-46
2022/09/13 11:39:24;;;;;;;12.88;3.83;;;;;;;26.99;60.00;101011.81;5048292;28;20245;-42
2022/09/13 11:42:17;;;;;;;11.43;4.13;;;;;;;26.99;60.14;100997.38;5052136;28;20032;-42
2022/09/13 11:45:19;;;;;;;13.25;4.00;;;;;;;27.03;59.64;101004.16;5052283;28;20816;-42
2022/09/13 11:48:40;;;;;;;24.02;4.38;;;;;;;27.05;59.97;101004.00;5051713;28;20234;-42
2022/09/13 11:51:29;;;;;;;11.73;3.78;;;;;;;27.05;59.48;101001.28;4993800;28;21276;-43
2022/09/13 11:54:16;;;;;;;6.95;3.08;;;;;;;27.05;59.42;101002.13;5051101;28;20487;-42